createdAt,value
2022-11-12T00:01:04.570Z,8.10
2022-11-12T00:03:33.587Z,8.05
2022-11-12T00:06:01.292Z,7.78
2022-11-12T00:08:29.464Z,8.52
2022-11-12T00:10:57.448Z,7.72
2022-11-12T00:13:25.093Z,8.65
2022-11-12T00:15:52.775Z,8.27
2022-11-12T00:18:20.499Z,8.20
2022-11-12T00:20:49.725Z,8.23
2022-11-12T00:23:17.375Z,8.63
2022-11-12T00:25:45.089Z,8.10
2022-11-12T00:28:12.879Z,7.10
2022-11-12T00:30:41.461Z,8.88
2022-11-12T00:33:09.187Z,7.80
2022-11-12T00:35:37.994Z,8.57
2022-11-12T00:38:06.984Z,8.43
2022-11-12T00:40:34.660Z,7.82
2022-11-12T00:43:02.305Z,7.28
2022-11-12T00:45:29.984Z,7.80
2022-11-12T00:47:58.112Z,8.02
2022-11-12T00:50:25.927Z,8.70
2022-11-12T00:52:53.908Z,7.93
2022-11-12T00:55:22.986Z,8.27
2022-11-12T00:57:50.692Z,8.65
2022-11-12T01:00:20.015Z,7.95
2022-11-12T01:02:51.375Z,8.32
2022-11-12T01:05:20.289Z,7.30
2022-11-12T01:07:54.699Z,8.02
2022-11-12T01:10:24.948Z,7.82
2022-11-12T01:12:52.681Z,7.93
2022-11-12T01:15:20.276Z,7.63
2022-11-12T01:17:47.953Z,7.97
2022-11-12T01:20:15.658Z,7.05
2022-11-12T01:22:43.342Z,8.13
2022-11-12T01:25:11.127Z,7.18
2022-11-12T01:27:40.123Z,7.15
2022-11-12T01:30:08.865Z,7.45
2022-11-12T01:32:37.868Z,8.02
2022-11-12T01:35:06.677Z,7.82
2022-11-12T01:37:34.369Z,7.32
2022-11-12T01:40:02.037Z,7.35
2022-11-12T01:42:32.547Z,6.70
2022-11-12T01:45:01.588Z,6.95
2022-11-12T01:47:31.303Z,7.30
2022-11-12T01:50:06.577Z,7.20
2022-11-12T01:52:37.730Z,6.82
2022-11-12T01:55:10.882Z,7.45
2022-11-12T01:57:42.952Z,6.18
2022-11-12T02:00:14.484Z,7.07
2022-11-12T02:02:46.272Z,6.97
2022-11-12T02:05:15.944Z,6.78
2022-11-12T02:07:46.921Z,6.55
2022-11-12T02:10:15.258Z,6.25
2022-11-12T02:13:01.421Z,6.85
2022-11-12T02:15:30.702Z,6.50
2022-11-12T02:17:58.525Z,6.90
2022-11-12T02:20:26.459Z,6.00
2022-11-12T02:22:55.481Z,6.10
2022-11-12T02:25:25.585Z,6.28
2022-11-12T02:27:55.362Z,6.88
2022-11-12T02:30:33.560Z,6.15
2022-11-12T02:33:01.657Z,6.15
2022-11-12T02:35:29.297Z,6.60
2022-11-12T02:37:58.781Z,6.60
2022-11-12T02:40:26.543Z,6.53
2022-11-12T02:42:54.234Z,5.97
2022-11-12T02:45:22.173Z,5.97
2022-11-12T02:47:49.846Z,5.85
2022-11-12T02:50:18.312Z,6.13
2022-11-12T02:52:46.004Z,5.88
2022-11-12T02:55:14.993Z,5.68
2022-11-12T02:57:42.801Z,6.47
2022-11-12T03:00:13.053Z,6.65
2022-11-12T03:02:42.718Z,5.43
2022-11-12T03:05:11.120Z,6.03
2022-11-12T03:07:38.977Z,6.00
2022-11-12T03:10:07.778Z,6.00
2022-11-12T03:12:36.800Z,5.47
2022-11-12T03:15:04.757Z,5.47
2022-11-12T03:17:32.515Z,5.80
2022-11-12T03:20:00.240Z,5.93
2022-11-12T03:22:27.873Z,4.97
2022-11-12T03:24:55.555Z,6.38
2022-11-12T03:27:23.180Z,5.68
2022-11-12T03:29:52.205Z,5.28
2022-11-12T03:32:19.854Z,5.50
2022-11-12T03:34:49.617Z,4.95
2022-11-12T03:37:19.533Z,5.38
2022-11-12T03:39:47.172Z,6.07
2022-11-12T03:42:14.897Z,5.20
2022-11-12T03:44:42.522Z,6.32
2022-11-12T03:47:11.626Z,4.85
2022-11-12T03:49:39.341Z,5.10
2022-11-12T03:52:06.971Z,5.03
2022-11-12T03:54:34.624Z,5.20
2022-11-12T03:57:02.297Z,5.07
2022-11-12T03:59:29.963Z,5.15
2022-11-12T04:01:57.615Z,5.65
2022-11-12T04:04:47.057Z,4.85
2022-11-12T04:07:32.413Z,5.60
2022-11-12T04:10:00.162Z,5.10
2022-11-12T04:12:45.429Z,5.90
2022-11-12T04:15:13.112Z,5.57
2022-11-12T04:17:58.560Z,5.22
2022-11-12T04:20:45.169Z,4.63
2022-11-12T04:23:12.833Z,5.68
2022-11-12T04:25:58.305Z,5.28
2022-11-12T04:28:26.306Z,5.57
2022-11-12T04:30:53.177Z,5.15
2022-11-12T04:33:20.877Z,4.80
2022-11-12T04:35:49.918Z,5.88
2022-11-12T04:38:17.577Z,5.10
2022-11-12T04:41:02.894Z,5.38
2022-11-12T04:43:48.510Z,5.15
2022-11-12T04:46:16.203Z,5.47
2022-11-12T04:48:43.856Z,4.95
2022-11-12T04:51:26.981Z,5.95
2022-11-12T04:53:54.859Z,6.47
2022-11-12T04:56:22.579Z,5.22
2022-11-12T04:58:50.247Z,5.30
2022-11-12T05:01:17.965Z,5.13
2022-11-12T05:03:45.669Z,4.80
2022-11-12T05:06:28.577Z,4.60
2022-11-12T05:08:56.549Z,5.15
2022-11-12T05:11:24.206Z,5.22
2022-11-12T05:13:51.897Z,4.90
2022-11-12T05:16:19.529Z,5.00
2022-11-12T05:18:47.161Z,5.45
2022-11-12T05:21:34.594Z,5.13
2022-11-12T05:24:04.977Z,5.20
2022-11-12T05:26:32.635Z,4.90
2022-11-12T05:29:02.164Z,4.82
2022-11-12T05:31:32.857Z,5.35
2022-11-12T05:34:00.762Z,4.93
2022-11-12T05:36:29.765Z,5.57
2022-11-12T05:38:57.541Z,5.63
2022-11-12T05:41:25.212Z,5.05
2022-11-12T05:43:52.936Z,5.45
2022-11-12T05:46:20.833Z,5.25
2022-11-12T05:48:48.588Z,5.78
2022-11-12T05:51:16.613Z,4.40
2022-11-12T05:53:45.697Z,4.88
2022-11-12T05:56:13.375Z,4.88
2022-11-12T05:58:41.034Z,5.45
2022-11-12T06:01:08.775Z,5.03
2022-11-12T06:03:36.451Z,4.93
2022-11-12T06:06:04.138Z,5.20
2022-11-12T06:08:31.798Z,5.30
2022-11-12T06:11:00.805Z,5.35
2022-11-12T06:13:28.703Z,5.75
2022-11-12T06:15:57.060Z,5.40
2022-11-12T06:18:25.966Z,4.50
2022-11-12T06:21:11.709Z,5.50
2022-11-12T06:23:39.453Z,5.72
2022-11-12T06:26:08.582Z,5.65
2022-11-12T06:28:36.306Z,5.22
2022-11-12T06:31:04.459Z,5.00
2022-11-12T06:33:32.221Z,4.40
2022-11-12T06:36:03.057Z,4.97
2022-11-12T06:38:31.401Z,5.03
2022-11-12T06:40:59.104Z,5.57
2022-11-12T06:43:30.464Z,5.45
2022-11-12T06:46:00.865Z,4.32
2022-11-12T06:48:29.854Z,5.13
2022-11-12T06:50:58.082Z,4.95
2022-11-12T06:53:26.225Z,4.95
2022-11-12T06:55:53.898Z,4.50
2022-11-12T06:58:21.518Z,5.10
2022-11-12T07:00:50.557Z,5.55
2022-11-12T07:03:18.266Z,5.75
2022-11-12T07:05:45.899Z,5.07
2022-11-12T07:08:13.602Z,5.20
2022-11-12T07:10:41.232Z,5.63
2022-11-12T07:13:08.904Z,5.30
2022-11-12T07:15:36.540Z,5.47
2022-11-12T07:18:05.717Z,5.30
2022-11-12T07:20:33.409Z,4.38
2022-11-12T07:23:01.686Z,5.10
2022-11-12T07:25:29.333Z,5.82
2022-11-12T07:27:56.990Z,5.30
2022-11-12T07:30:24.653Z,5.85
2022-11-12T07:32:52.346Z,4.97
2022-11-12T07:35:21.365Z,5.07
2022-11-12T07:37:49.029Z,5.43
2022-11-12T07:40:16.993Z,4.88
2022-11-12T07:42:44.627Z,5.07
2022-11-12T07:45:12.359Z,5.68
2022-11-12T07:47:40.024Z,5.50
2022-11-12T07:50:08.290Z,5.00
2022-11-12T07:52:37.289Z,5.47
2022-11-12T07:55:07.008Z,4.68
2022-11-12T07:57:34.911Z,4.72
2022-11-12T08:00:02.700Z,5.40
2022-11-12T08:02:30.557Z,5.32
2022-11-12T08:04:58.246Z,5.15
2022-11-12T08:07:26.080Z,5.03
2022-11-12T08:09:55.387Z,4.43
2022-11-12T08:12:23.157Z,4.95
2022-11-12T08:14:50.871Z,5.63
2022-11-12T08:17:18.499Z,5.57
2022-11-12T08:19:46.227Z,5.85
2022-11-12T08:22:13.994Z,5.70
2022-11-12T08:24:41.690Z,6.30
2022-11-12T08:27:10.696Z,5.70
2022-11-12T08:29:38.371Z,5.03
2022-11-12T08:32:06.541Z,5.72
2022-11-12T08:34:35.909Z,5.78
2022-11-12T08:37:03.764Z,5.65
2022-11-12T08:39:31.448Z,5.25
2022-11-12T08:41:59.167Z,5.30
2022-11-12T08:44:28.276Z,5.88
2022-11-12T08:46:55.949Z,6.05
2022-11-12T08:49:23.591Z,5.85
2022-11-12T08:51:51.328Z,5.70
2022-11-12T08:54:19.176Z,5.10
2022-11-12T08:56:46.918Z,4.78
2022-11-12T08:59:14.556Z,5.00
2022-11-12T09:01:43.891Z,5.07
2022-11-12T09:04:11.778Z,5.50
2022-11-12T09:06:39.496Z,5.38
2022-11-12T09:09:07.310Z,5.43
2022-11-12T09:11:34.958Z,4.47
2022-11-12T09:14:02.657Z,5.10
2022-11-12T09:16:30.408Z,4.88
2022-11-12T09:18:59.412Z,5.18
2022-11-12T09:21:27.165Z,4.50
2022-11-12T09:23:55.551Z,4.85
2022-11-12T09:26:23.487Z,5.18
2022-11-12T09:28:52.346Z,5.30
2022-11-12T09:31:20.045Z,4.90
2022-11-12T09:33:47.760Z,4.55
2022-11-12T09:36:17.637Z,5.07
2022-11-12T09:38:45.269Z,4.80
2022-11-12T09:41:21.674Z,4.95
2022-11-12T09:43:52.230Z,4.63
2022-11-12T09:46:29.540Z,5.20
2022-11-12T09:49:03.778Z,4.95
2022-11-12T09:51:35.396Z,4.80
2022-11-12T09:54:05.704Z,4.15
2022-11-12T09:56:33.407Z,4.38
2022-11-12T09:59:01.207Z,3.92
2022-11-12T10:01:44.141Z,4.60
2022-11-12T10:04:37.577Z,4.65
2022-11-12T10:07:13.861Z,4.10
2022-11-12T10:09:52.517Z,5.18
2022-11-12T10:12:33.511Z,5.00
2022-11-12T10:15:35.978Z,4.20
2022-11-12T10:18:09.261Z,3.90
2022-11-12T10:20:42.731Z,4.85
2022-11-12T10:23:19.474Z,4.75
2022-11-12T10:25:49.910Z,4.20
2022-11-12T10:28:28.249Z,3.58
2022-11-12T10:31:02.457Z,3.95
2022-11-12T10:33:32.753Z,4.25
2022-11-12T10:36:16.235Z,4.32
2022-11-12T10:38:49.041Z,3.60
2022-11-12T10:41:23.189Z,4.10
2022-11-12T10:43:59.385Z,4.15
2022-11-12T10:46:29.835Z,3.28
2022-11-12T10:49:01.059Z,3.58
2022-11-12T10:51:32.222Z,4.25
2022-11-12T10:54:29.603Z,4.18
2022-11-12T10:56:57.335Z,3.78
2022-11-12T10:59:25.702Z,4.43
2022-11-12T11:01:58.511Z,4.07
2022-11-12T11:04:31.121Z,3.40
2022-11-12T11:07:01.721Z,3.95
2022-11-12T11:09:31.489Z,3.92
2022-11-12T11:11:59.337Z,3.40
2022-11-12T11:14:33.455Z,3.75
2022-11-12T11:17:04.645Z,3.60
2022-11-12T11:19:38.811Z,3.83
2022-11-12T11:22:39.185Z,3.60
2022-11-12T11:25:21.643Z,3.75
2022-11-12T11:28:02.605Z,3.30
2022-11-12T11:30:30.351Z,3.70
2022-11-12T11:33:22.356Z,3.53
2022-11-12T11:36:03.792Z,3.58
2022-11-12T11:38:41.206Z,3.67
2022-11-12T11:41:30.195Z,3.65
2022-11-12T11:44:13.756Z,3.90
2022-11-12T11:46:52.343Z,3.30
2022-11-12T11:49:36.244Z,4.40
2022-11-12T11:52:15.800Z,3.60
2022-11-12T11:55:00.049Z,3.47
2022-11-12T11:57:34.539Z,3.40
2022-11-12T12:00:12.553Z,3.67
2022-11-12T12:03:05.629Z,3.75
2022-11-12T12:05:42.954Z,3.35
2022-11-12T12:08:14.031Z,3.17
2022-11-12T12:11:07.718Z,3.92
2022-11-12T12:13:52.613Z,4.10
2022-11-12T12:16:46.086Z,3.17
2022-11-12T12:19:27.624Z,3.05
2022-11-12T12:21:57.997Z,3.47
2022-11-12T12:24:30.870Z,3.42
2022-11-12T12:27:03.671Z,3.67
2022-11-12T12:29:38.322Z,3.50
2022-11-12T12:32:15.029Z,3.47
2022-11-12T12:37:18.242Z,3.63
2022-11-12T12:39:53.330Z,3.70
2022-11-12T12:42:24.037Z,3.38
2022-11-12T12:45:04.745Z,3.38
2022-11-12T12:47:37.721Z,3.05
2022-11-12T12:50:08.179Z,3.03
2022-11-12T12:53:03.069Z,3.83
2022-11-12T12:55:42.578Z,3.30
2022-11-12T12:58:26.939Z,3.15
2022-11-12T13:01:00.621Z,3.03
2022-11-12T13:03:55.972Z,4.30
2022-11-12T13:06:29.259Z,2.67
2022-11-12T13:09:01.521Z,3.15
2022-11-12T13:12:06.127Z,3.05
2022-11-12T13:14:52.520Z,3.28
2022-11-12T13:17:48.399Z,3.10
2022-11-12T13:20:40.782Z,2.75
2022-11-12T13:23:33.191Z,2.97
2022-11-12T13:26:45.484Z,3.50
2022-11-12T13:29:24.474Z,3.47
2022-11-12T13:32:27.731Z,2.70
2022-11-12T13:35:16.140Z,2.65
2022-11-12T13:37:45.665Z,2.95
2022-11-12T13:40:16.968Z,3.00
2022-11-12T13:42:52.198Z,3.20
2022-11-12T13:45:22.546Z,3.83
2022-11-12T13:47:50.453Z,3.17
2022-11-12T13:50:21.864Z,2.85
2022-11-12T13:52:50.704Z,3.03
2022-11-12T13:55:20.577Z,3.13
2022-11-12T13:57:51.932Z,3.33
2022-11-12T14:00:28.085Z,3.20
2022-11-12T14:02:58.763Z,3.10
2022-11-12T14:05:28.083Z,3.08
2022-11-12T14:08:17.808Z,3.67
2022-11-12T14:10:55.627Z,2.85
2022-11-12T14:13:43.915Z,3.28
2022-11-12T14:16:28.138Z,2.90
2022-11-12T14:19:15.156Z,2.90
2022-11-12T14:21:42.883Z,2.78
2022-11-12T14:24:13.375Z,3.40
2022-11-12T14:26:44.463Z,2.85
2022-11-12T14:29:19.354Z,3.33
2022-11-12T14:31:47.540Z,3.47
2022-11-12T14:34:22.792Z,3.00
2022-11-12T14:36:50.731Z,3.97
2022-11-12T14:39:18.461Z,3.03
2022-11-12T14:41:49.118Z,3.25
2022-11-12T14:44:22.243Z,3.13
2022-11-12T14:46:53.749Z,3.00
2022-11-12T14:49:29.039Z,3.50
2022-11-12T14:52:04.532Z,3.50
2022-11-12T14:54:36.134Z,3.97
2022-11-12T14:57:05.697Z,3.25
2022-11-12T14:59:35.064Z,3.60
2022-11-12T15:05:00.205Z,3.33
2022-11-12T15:07:30.486Z,3.38
2022-11-12T15:09:58.214Z,3.30
2022-11-12T15:12:28.237Z,3.00
2022-11-12T15:15:08.352Z,3.33
2022-11-12T15:17:38.102Z,3.03
2022-11-12T15:20:15.309Z,3.33
2022-11-12T15:22:50.735Z,3.15
2022-11-12T15:25:22.926Z,3.35
2022-11-12T15:27:51.180Z,3.15
2022-11-12T15:30:24.446Z,3.15
2022-11-12T15:33:08.475Z,3.90
2022-11-12T15:35:38.039Z,3.53
2022-11-12T15:38:08.982Z,3.50
2022-11-12T15:40:44.026Z,3.63
2022-11-12T15:43:15.486Z,4.30
2022-11-12T15:45:44.664Z,4.80
2022-11-12T15:48:13.520Z,4.30
2022-11-12T15:50:41.186Z,4.75
2022-11-12T15:53:08.881Z,4.80
2022-11-12T15:55:38.558Z,5.18
2022-11-12T15:58:07.770Z,5.18
2022-11-12T16:00:37.473Z,4.63
2022-11-12T16:03:14.768Z,4.72
2022-11-12T16:05:42.709Z,4.57
2022-11-12T16:08:10.714Z,4.90
2022-11-12T16:10:39.317Z,5.38
2022-11-12T16:13:08.359Z,5.30
2022-11-12T16:15:36.089Z,5.70
2022-11-12T16:18:03.809Z,5.88
2022-11-12T16:20:34.672Z,5.80
2022-11-12T16:23:02.741Z,6.07
2022-11-12T16:25:32.905Z,5.90
2022-11-12T16:28:01.864Z,5.55
2022-11-12T16:30:32.449Z,6.93
2022-11-12T16:33:01.983Z,6.47
2022-11-12T16:35:30.782Z,6.68
2022-11-12T16:37:59.822Z,7.03
2022-11-12T16:40:29.814Z,7.32
2022-11-12T16:42:57.862Z,6.47
2022-11-12T16:45:33.018Z,7.88
2022-11-12T16:48:00.820Z,7.70
2022-11-12T16:50:29.761Z,6.78
2022-11-12T16:52:58.843Z,8.32
2022-11-12T16:55:26.531Z,7.22
2022-11-12T16:57:54.188Z,7.38
2022-11-12T17:00:22.145Z,7.38
2022-11-12T17:02:53.377Z,7.45
2022-11-12T17:05:23.706Z,7.60
2022-11-12T17:07:56.106Z,8.18
2022-11-12T17:10:25.387Z,7.82
2022-11-12T17:12:53.280Z,6.88
2022-11-12T17:15:21.229Z,7.20
2022-11-12T17:17:48.916Z,7.32
2022-11-12T17:20:17.325Z,6.65
2022-11-12T17:22:45.022Z,7.93
2022-11-12T17:25:12.738Z,7.25
2022-11-12T17:27:41.733Z,8.23
2022-11-12T17:30:11.285Z,7.00
2022-11-12T17:32:39.065Z,7.10
2022-11-12T17:35:07.854Z,7.30
2022-11-12T17:37:35.611Z,7.30
2022-11-12T17:40:03.355Z,7.40
2022-11-12T17:42:31.078Z,7.03
2022-11-12T17:45:00.065Z,7.47
2022-11-12T17:47:28.682Z,6.93
2022-11-12T17:49:56.340Z,7.57
2022-11-12T17:52:24.132Z,7.93
2022-11-12T17:54:51.825Z,7.50
2022-11-12T17:57:19.519Z,6.90
2022-11-12T17:59:47.137Z,8.35
2022-11-12T18:02:16.151Z,8.13
2022-11-12T18:04:43.835Z,8.50
2022-11-12T18:07:11.569Z,7.45
2022-11-12T18:09:39.253Z,8.65
2022-11-12T18:12:07.176Z,8.20
2022-11-12T18:14:35.025Z,8.35
2022-11-12T18:17:02.993Z,8.27
2022-11-12T18:19:32.075Z,9.00
2022-11-12T18:22:02.070Z,7.90
2022-11-12T18:24:29.773Z,7.70
2022-11-12T18:26:57.438Z,8.52
2022-11-12T18:29:25.123Z,8.68
2022-11-12T18:31:52.782Z,8.90
2022-11-12T18:34:20.481Z,8.18
2022-11-12T18:36:49.513Z,8.73
2022-11-12T18:39:17.216Z,7.90
2022-11-12T18:41:44.917Z,7.95
2022-11-12T18:44:12.625Z,8.20
2022-11-12T18:46:40.305Z,8.52
2022-11-12T18:49:08.135Z,7.80
2022-11-12T18:51:36.205Z,8.50
2022-11-12T18:54:05.653Z,8.95
2022-11-12T18:56:33.387Z,7.90
2022-11-12T18:59:01.083Z,8.27
2022-11-12T19:01:28.799Z,10.02
2022-11-12T19:03:57.521Z,9.43
2022-11-12T19:06:26.385Z,9.65
2022-11-12T19:08:59.628Z,9.35
2022-11-12T19:11:28.674Z,8.43
2022-11-12T19:13:57.171Z,9.63
2022-11-12T19:16:25.345Z,9.15
2022-11-12T19:18:53.545Z,9.73
2022-11-12T19:21:23.513Z,9.35
2022-11-12T19:23:54.776Z,8.90
2022-11-12T19:26:24.125Z,8.98
2022-11-12T19:28:53.267Z,8.77
2022-11-12T19:31:23.206Z,9.48
2022-11-12T19:33:51.735Z,8.90
2022-11-12T19:36:22.166Z,9.45
2022-11-12T19:38:54.600Z,9.55
2022-11-12T19:41:22.337Z,9.02
2022-11-12T19:43:50.109Z,9.68
2022-11-12T19:46:19.367Z,9.27
2022-11-12T19:48:47.217Z,9.00
2022-11-12T19:51:15.109Z,9.98
2022-11-12T19:53:45.365Z,8.63
2022-11-12T19:56:16.894Z,9.20
2022-11-12T19:58:46.225Z,8.95
2022-11-12T20:01:16.033Z,8.60
2022-11-12T20:03:45.151Z,8.70
2022-11-12T20:06:14.474Z,9.63
2022-11-12T20:08:42.162Z,9.40
2022-11-12T20:11:10.028Z,8.82
2022-11-12T20:13:37.768Z,9.00
2022-11-12T20:16:09.382Z,9.73
2022-11-12T20:18:37.069Z,9.23
2022-11-12T20:21:07.753Z,9.65
2022-11-12T20:23:36.499Z,9.90
2022-11-12T20:26:05.733Z,10.13
2022-11-12T20:28:34.057Z,9.40
2022-11-12T20:31:03.641Z,9.18
2022-11-12T20:33:31.465Z,10.73
2022-11-12T20:36:04.481Z,10.13
2022-11-12T20:38:36.488Z,9.82
2022-11-12T20:41:05.672Z,9.60
2022-11-12T20:43:33.878Z,10.45
2022-11-12T20:46:01.961Z,10.48
2022-11-12T20:48:30.275Z,9.23
2022-11-12T20:51:22.532Z,10.45
2022-11-12T20:53:58.886Z,10.10
2022-11-12T20:56:29.296Z,10.82
2022-11-12T20:58:57.665Z,9.95
2022-11-12T21:01:27.269Z,11.13
2022-11-12T21:03:55.333Z,10.27
2022-11-12T21:06:24.630Z,10.63
2022-11-12T21:08:54.160Z,11.10
2022-11-12T21:11:23.491Z,10.57
2022-11-12T21:13:51.407Z,11.10
2022-11-12T21:16:19.119Z,11.18
2022-11-12T21:18:46.884Z,10.88
2022-11-12T21:21:16.616Z,10.45
2022-11-12T21:23:45.682Z,10.95
2022-11-12T21:26:16.027Z,11.95
2022-11-12T21:28:44.751Z,11.70
2022-11-12T21:31:14.171Z,11.55
2022-11-12T21:33:41.882Z,11.68
2022-11-12T21:36:15.803Z,10.82
2022-11-12T21:38:44.524Z,11.25
2022-11-12T21:41:15.666Z,12.63
2022-11-12T21:43:44.775Z,11.05
2022-11-12T21:46:15.506Z,12.40
2022-11-12T21:48:43.510Z,12.20
2022-11-12T21:51:13.597Z,11.98
2022-11-12T21:53:43.120Z,12.38
2022-11-12T21:56:12.565Z,12.10
2022-11-12T21:58:41.686Z,12.25
2022-11-12T22:01:10.777Z,11.95
2022-11-12T22:03:39.345Z,12.30
2022-11-12T22:06:08.101Z,11.95
2022-11-12T22:08:36.079Z,11.73
2022-11-12T22:11:05.241Z,11.75
2022-11-12T22:13:33.615Z,13.70
2022-11-12T22:16:07.362Z,12.27
2022-11-12T22:18:35.353Z,13.10
2022-11-12T22:21:05.358Z,12.20
2022-11-12T22:23:35.857Z,12.85
2022-11-12T22:26:04.432Z,12.98
2022-11-12T22:28:32.219Z,13.27
2022-11-12T22:31:06.235Z,13.27
2022-11-12T22:33:34.551Z,12.43
2022-11-12T22:36:03.086Z,13.55
2022-11-12T22:38:35.330Z,12.75
2022-11-12T22:41:04.570Z,13.10
2022-11-12T22:43:32.686Z,14.75
2022-11-12T22:46:10.585Z,12.45
2022-11-12T22:48:38.494Z,12.57
2022-11-12T22:51:07.959Z,12.15
2022-11-12T22:53:35.894Z,12.32
2022-11-12T22:56:04.050Z,13.52
2022-11-12T22:58:31.866Z,12.07
2022-11-12T23:00:59.621Z,12.40
2022-11-12T23:03:31.270Z,12.60
2022-11-12T23:05:59.408Z,11.90
2022-11-12T23:08:27.740Z,12.75
2022-11-12T23:10:55.797Z,13.20
2022-11-12T23:13:26.703Z,11.32
2022-11-12T23:15:54.554Z,12.07
2022-11-12T23:18:22.189Z,11.70
2022-11-12T23:20:51.406Z,11.55
2022-11-12T23:23:19.211Z,11.00
2022-11-12T23:25:46.855Z,10.82
2022-11-12T23:28:14.516Z,11.52
2022-11-12T23:30:48.826Z,11.45
2022-11-12T23:33:16.495Z,10.80
2022-11-12T23:35:44.166Z,10.10
2022-11-12T23:38:13.170Z,10.43
2022-11-12T23:40:40.840Z,10.18
2022-11-12T23:43:08.562Z,9.18
2022-11-12T23:45:37.138Z,9.73
2022-11-12T23:48:05.296Z,8.82
2022-11-12T23:50:32.978Z,9.48
2022-11-12T23:53:00.673Z,9.90
2022-11-12T23:55:29.706Z,8.70
2022-11-12T23:57:57.341Z,8.70
